sensor_id;sensor_type;location;lat;lon;timestamp;P1;durP1;ratioP1;P2;durP2;ratioP2
18360;SDS011;9308;48.550;9.108;2023-03-31T00:00:42;3.90;;;3.07;;
18360;SDS011;9308;48.550;9.108;2023-03-31T00:03:08;7.63;;;2.90;;
18360;SDS011;9308;48.550;9.108;2023-03-31T00:05:35;6.10;;;2.83;;
18360;SDS011;9308;48.550;9.108;2023-03-31T00:08:01;3.87;;;2.53;;
18360;SDS011;9308;48.550;9.108;2023-03-31T00:10:27;4.90;;;2.70;;
18360;SDS011;9308;48.550;9.108;2023-03-31T00:12:56;3.90;;;2.80;;
18360;SDS011;9308;48.550;9.108;2023-03-31T00:15:22;4.70;;;2.77;;
18360;SDS011;9308;48.550;9.108;2023-03-31T00:17:47;4.20;;;2.97;;
18360;SDS011;9308;48.550;9.108;2023-03-31T00:20:13;7.47;;;3.20;;
18360;SDS011;9308;48.550;9.108;2023-03-31T00:22:39;5.17;;;2.67;;
18360;SDS011;9308;48.550;9.108;2023-03-31T00:25:07;3.53;;;2.70;;
18360;SDS011;9308;48.550;9.108;2023-03-31T00:27:35;4.83;;;2.60;;
18360;SDS011;9308;48.550;9.108;2023-03-31T00:30:01;3.03;;;2.70;;
18360;SDS011;9308;48.550;9.108;2023-03-31T00:32:26;4.67;;;2.70;;
18360;SDS011;9308;48.550;9.108;2023-03-31T00:34:51;3.43;;;2.97;;
18360;SDS011;9308;48.550;9.108;2023-03-31T00:37:17;5.50;;;2.73;;
18360;SDS011;9308;48.550;9.108;2023-03-31T00:39:42;4.30;;;2.53;;
18360;SDS011;9308;48.550;9.108;2023-03-31T00:42:09;5.77;;;2.63;;
18360;SDS011;9308;48.550;9.108;2023-03-31T00:45:23;4.60;;;3.10;;
18360;SDS011;9308;48.550;9.108;2023-03-31T00:47:48;3.83;;;3.40;;
18360;SDS011;9308;48.550;9.108;2023-03-31T00:50:42;4.60;;;2.60;;
18360;SDS011;9308;48.550;9.108;2023-03-31T00:53:14;3.97;;;2.83;;
18360;SDS011;9308;48.550;9.108;2023-03-31T00:55:47;5.50;;;3.27;;
18360;SDS011;9308;48.550;9.108;2023-03-31T00:58:16;5.07;;;3.13;;
18360;SDS011;9308;48.550;9.108;2023-03-31T01:00:47;4.63;;;2.73;;
18360;SDS011;9308;48.550;9.108;2023-03-31T01:03:16;3.37;;;2.70;;
18360;SDS011;9308;48.550;9.108;2023-03-31T01:05:44;6.17;;;2.93;;
18360;SDS011;9308;48.550;9.108;2023-03-31T01:08:17;5.30;;;3.10;;
18360;SDS011;9308;48.550;9.108;2023-03-31T01:10:49;6.87;;;2.90;;
18360;SDS011;9308;48.550;9.108;2023-03-31T01:13:21;5.00;;;2.70;;
18360;SDS011;9308;48.550;9.108;2023-03-31T01:15:48;4.53;;;2.90;;
18360;SDS011;9308;48.550;9.108;2023-03-31T01:18:14;8.07;;;3.30;;
18360;SDS011;9308;48.550;9.108;2023-03-31T01:26:04;4.73;;;3.67;;
18360;SDS011;9308;48.550;9.108;2023-03-31T01:37:05;3.33;;;2.77;;
18360;SDS011;9308;48.550;9.108;2023-03-31T01:42:53;3.90;;;3.20;;
18360;SDS011;9308;48.550;9.108;2023-03-31T01:45:46;6.70;;;3.30;;
18360;SDS011;9308;48.550;9.108;2023-03-31T01:48:16;8.03;;;2.90;;
18360;SDS011;9308;48.550;9.108;2023-03-31T01:50:55;8.40;;;3.10;;
18360;SDS011;9308;48.550;9.108;2023-03-31T01:56:06;5.37;;;3.03;;
18360;SDS011;9308;48.550;9.108;2023-03-31T01:58:41;8.33;;;3.93;;
18360;SDS011;9308;48.550;9.108;2023-03-31T02:01:19;4.50;;;3.17;;
18360;SDS011;9308;48.550;9.108;2023-03-31T02:03:50;4.90;;;3.10;;
18360;SDS011;9308;48.550;9.108;2023-03-31T02:06:21;4.50;;;3.27;;
18360;SDS011;9308;48.550;9.108;2023-03-31T02:08:56;6.47;;;3.63;;
18360;SDS011;9308;48.550;9.108;2023-03-31T02:11:27;6.97;;;3.93;;
18360;SDS011;9308;48.550;9.108;2023-03-31T02:13:54;4.50;;;3.63;;
18360;SDS011;9308;48.550;9.108;2023-03-31T02:16:23;5.47;;;3.73;;
18360;SDS011;9308;48.550;9.108;2023-03-31T02:18:51;6.20;;;3.80;;
18360;SDS011;9308;48.550;9.108;2023-03-31T02:21:27;3.70;;;2.90;;
18360;SDS011;9308;48.550;9.108;2023-03-31T02:23:58;6.03;;;3.67;;
18360;SDS011;9308;48.550;9.108;2023-03-31T02:26:30;6.53;;;3.40;;
18360;SDS011;9308;48.550;9.108;2023-03-31T02:29:00;4.60;;;3.40;;
18360;SDS011;9308;48.550;9.108;2023-03-31T02:34:06;7.30;;;3.93;;
18360;SDS011;9308;48.550;9.108;2023-03-31T02:36:32;6.20;;;3.77;;
18360;SDS011;9308;48.550;9.108;2023-03-31T02:39:01;5.00;;;3.30;;
18360;SDS011;9308;48.550;9.108;2023-03-31T02:41:32;8.37;;;4.43;;
18360;SDS011;9308;48.550;9.108;2023-03-31T02:43:58;4.40;;;3.57;;
18360;SDS011;9308;48.550;9.108;2023-03-31T02:46:24;6.57;;;3.70;;
18360;SDS011;9308;48.550;9.108;2023-03-31T02:48:51;6.10;;;3.97;;
18360;SDS011;9308;48.550;9.108;2023-03-31T03:02:17;7.27;;;4.40;;
18360;SDS011;9308;48.550;9.108;2023-03-31T03:05:07;6.80;;;4.37;;
18360;SDS011;9308;48.550;9.108;2023-03-31T03:10:36;4.83;;;3.83;;
18360;SDS011;9308;48.550;9.108;2023-03-31T03:16:11;6.83;;;4.47;;
18360;SDS011;9308;48.550;9.108;2023-03-31T03:18:58;7.43;;;4.47;;
18360;SDS011;9308;48.550;9.108;2023-03-31T03:21:26;6.70;;;3.97;;
18360;SDS011;9308;48.550;9.108;2023-03-31T03:23:52;7.60;;;4.43;;
18360;SDS011;9308;48.550;9.108;2023-03-31T03:26:19;5.20;;;4.30;;
18360;SDS011;9308;48.550;9.108;2023-03-31T03:28:51;7.47;;;5.47;;
18360;SDS011;9308;48.550;9.108;2023-03-31T03:31:17;7.33;;;5.43;;
18360;SDS011;9308;48.550;9.108;2023-03-31T03:33:43;6.47;;;4.90;;
18360;SDS011;9308;48.550;9.108;2023-03-31T03:36:09;7.20;;;4.80;;
18360;SDS011;9308;48.550;9.108;2023-03-31T03:38:35;6.53;;;4.73;;
18360;SDS011;9308;48.550;9.108;2023-03-31T03:41:01;7.60;;;5.03;;
18360;SDS011;9308;48.550;9.108;2023-03-31T03:43:26;9.40;;;5.43;;
18360;SDS011;9308;48.550;9.108;2023-03-31T03:45:52;5.33;;;4.73;;
18360;SDS011;9308;48.550;9.108;2023-03-31T03:48:17;9.03;;;5.20;;
18360;SDS011;9308;48.550;9.108;2023-03-31T03:50:46;8.93;;;4.67;;
18360;SDS011;9308;48.550;9.108;2023-03-31T03:53:12;8.23;;;4.70;;
18360;SDS011;9308;48.550;9.108;2023-03-31T03:55:38;4.70;;;4.10;;
18360;SDS011;9308;48.550;9.108;2023-03-31T03:58:03;7.73;;;5.67;;
18360;SDS011;9308;48.550;9.108;2023-03-31T04:00:29;9.40;;;6.23;;
18360;SDS011;9308;48.550;9.108;2023-03-31T04:02:54;8.70;;;5.20;;
18360;SDS011;9308;48.550;9.108;2023-03-31T04:05:20;10.30;;;6.50;;
18360;SDS011;9308;48.550;9.108;2023-03-31T04:07:46;6.03;;;5.23;;
18360;SDS011;9308;48.550;9.108;2023-03-31T04:10:11;5.50;;;5.00;;
18360;SDS011;9308;48.550;9.108;2023-03-31T04:12:37;8.87;;;5.93;;
18360;SDS011;9308;48.550;9.108;2023-03-31T04:15:02;6.00;;;5.00;;
18360;SDS011;9308;48.550;9.108;2023-03-31T04:17:29;5.97;;;4.83;;
18360;SDS011;9308;48.550;9.108;2023-03-31T04:20:04;5.63;;;4.80;;
18360;SDS011;9308;48.550;9.108;2023-03-31T04:22:34;7.87;;;5.37;;
18360;SDS011;9308;48.550;9.108;2023-03-31T04:25:08;8.97;;;5.20;;
18360;SDS011;9308;48.550;9.108;2023-03-31T04:27:45;5.83;;;5.20;;
18360;SDS011;9308;48.550;9.108;2023-03-31T04:30:17;14.03;;;5.10;;
18360;SDS011;9308;48.550;9.108;2023-03-31T04:32:55;5.17;;;4.67;;
18360;SDS011;9308;48.550;9.108;2023-03-31T04:35:26;5.23;;;4.50;;
18360;SDS011;9308;48.550;9.108;2023-03-31T04:38:14;7.00;;;5.20;;
18360;SDS011;9308;48.550;9.108;2023-03-31T04:40:44;9.60;;;5.53;;
18360;SDS011;9308;48.550;9.108;2023-03-31T04:43:20;9.50;;;5.63;;
18360;SDS011;9308;48.550;9.108;2023-03-31T04:45:46;7.27;;;5.20;;
18360;SDS011;9308;48.550;9.108;2023-03-31T04:48:11;10.23;;;5.60;;
18360;SDS011;9308;48.550;9.108;2023-03-31T04:50:37;6.80;;;5.50;;
18360;SDS011;9308;48.550;9.108;2023-03-31T04:53:03;8.97;;;6.40;;
18360;SDS011;9308;48.550;9.108;2023-03-31T04:55:29;6.60;;;5.80;;
18360;SDS011;9308;48.550;9.108;2023-03-31T04:57:55;6.70;;;6.00;;
18360;SDS011;9308;48.550;9.108;2023-03-31T05:00:21;5.77;;;5.27;;
18360;SDS011;9308;48.550;9.108;2023-03-31T05:02:46;6.30;;;5.47;;
18360;SDS011;9308;48.550;9.108;2023-03-31T05:05:12;6.97;;;5.43;;
18360;SDS011;9308;48.550;9.108;2023-03-31T05:07:37;7.27;;;5.23;;
18360;SDS011;9308;48.550;9.108;2023-03-31T05:10:03;9.73;;;6.57;;
18360;SDS011;9308;48.550;9.108;2023-03-31T05:12:36;8.20;;;5.60;;
18360;SDS011;9308;48.550;9.108;2023-03-31T05:15:03;6.43;;;5.57;;
18360;SDS011;9308;48.550;9.108;2023-03-31T05:17:33;6.27;;;5.70;;
18360;SDS011;9308;48.550;9.108;2023-03-31T05:20:00;6.33;;;5.70;;
18360;SDS011;9308;48.550;9.108;2023-03-31T05:22:26;8.10;;;7.13;;
18360;SDS011;9308;48.550;9.108;2023-03-31T05:24:51;7.37;;;6.67;;
18360;SDS011;9308;48.550;9.108;2023-03-31T05:27:17;9.50;;;7.50;;
18360;SDS011;9308;48.550;9.108;2023-03-31T05:29:45;9.50;;;6.40;;
18360;SDS011;9308;48.550;9.108;2023-03-31T05:32:11;7.23;;;6.57;;
18360;SDS011;9308;48.550;9.108;2023-03-31T05:34:36;7.70;;;6.40;;
18360;SDS011;9308;48.550;9.108;2023-03-31T05:37:02;8.07;;;7.30;;
18360;SDS011;9308;48.550;9.108;2023-03-31T05:39:27;8.43;;;7.43;;
18360;SDS011;9308;48.550;9.108;2023-03-31T05:41:57;7.60;;;6.90;;
18360;SDS011;9308;48.550;9.108;2023-03-31T05:44:23;13.10;;;7.47;;
18360;SDS011;9308;48.550;9.108;2023-03-31T05:46:50;10.60;;;7.70;;
18360;SDS011;9308;48.550;9.108;2023-03-31T05:49:16;8.30;;;7.03;;
18360;SDS011;9308;48.550;9.108;2023-03-31T05:51:41;7.50;;;6.43;;
18360;SDS011;9308;48.550;9.108;2023-03-31T05:54:07;7.53;;;6.83;;
18360;SDS011;9308;48.550;9.108;2023-03-31T05:56:32;8.50;;;7.13;;
18360;SDS011;9308;48.550;9.108;2023-03-31T05:58:58;10.10;;;6.90;;
18360;SDS011;9308;48.550;9.108;2023-03-31T06:01:25;8.40;;;6.53;;
18360;SDS011;9308;48.550;9.108;2023-03-31T06:03:51;6.37;;;5.77;;
18360;SDS011;9308;48.550;9.108;2023-03-31T06:06:16;10.83;;;7.20;;
18360;SDS011;9308;48.550;9.108;2023-03-31T06:08:42;7.13;;;6.43;;
18360;SDS011;9308;48.550;9.108;2023-03-31T06:11:10;10.63;;;6.60;;
18360;SDS011;9308;48.550;9.108;2023-03-31T06:13:37;9.00;;;7.43;;
18360;SDS011;9308;48.550;9.108;2023-03-31T06:16:04;8.30;;;6.70;;
18360;SDS011;9308;48.550;9.108;2023-03-31T06:18:31;7.40;;;6.70;;
18360;SDS011;9308;48.550;9.108;2023-03-31T06:20:58;7.67;;;6.90;;
18360;SDS011;9308;48.550;9.108;2023-03-31T06:23:25;7.23;;;6.50;;
18360;SDS011;9308;48.550;9.108;2023-03-31T06:25:51;9.23;;;6.80;;
18360;SDS011;9308;48.550;9.108;2023-03-31T06:28:16;10.90;;;7.80;;
18360;SDS011;9308;48.550;9.108;2023-03-31T06:30:42;11.73;;;8.40;;
18360;SDS011;9308;48.550;9.108;2023-03-31T06:33:07;11.37;;;9.37;;
18360;SDS011;9308;48.550;9.108;2023-03-31T06:35:36;10.30;;;8.30;;
18360;SDS011;9308;48.550;9.108;2023-03-31T06:38:02;8.83;;;7.80;;
18360;SDS011;9308;48.550;9.108;2023-03-31T06:40:27;12.57;;;11.37;;
18360;SDS011;9308;48.550;9.108;2023-03-31T06:42:53;14.53;;;13.13;;
18360;SDS011;9308;48.550;9.108;2023-03-31T06:45:19;12.77;;;10.90;;
18360;SDS011;9308;48.550;9.108;2023-03-31T06:47:45;11.07;;;8.63;;
18360;SDS011;9308;48.550;9.108;2023-03-31T06:50:10;8.07;;;6.80;;
18360;SDS011;9308;48.550;9.108;2023-03-31T06:52:36;9.23;;;7.17;;
18360;SDS011;9308;48.550;9.108;2023-03-31T06:55:01;6.33;;;5.67;;
18360;SDS011;9308;48.550;9.108;2023-03-31T06:57:27;10.23;;;6.10;;
18360;SDS011;9308;48.550;9.108;2023-03-31T06:59:53;7.70;;;6.57;;
18360;SDS011;9308;48.550;9.108;2023-03-31T07:02:19;7.43;;;5.70;;
18360;SDS011;9308;48.550;9.108;2023-03-31T07:04:45;7.47;;;5.40;;
18360;SDS011;9308;48.550;9.108;2023-03-31T07:07:10;7.83;;;6.90;;
18360;SDS011;9308;48.550;9.108;2023-03-31T07:09:36;8.80;;;6.90;;
18360;SDS011;9308;48.550;9.108;2023-03-31T07:12:02;10.17;;;8.00;;
18360;SDS011;9308;48.550;9.108;2023-03-31T07:14:29;5.73;;;4.40;;
18360;SDS011;9308;48.550;9.108;2023-03-31T07:16:56;6.50;;;4.37;;
18360;SDS011;9308;48.550;9.108;2023-03-31T07:19:21;3.60;;;3.30;;
18360;SDS011;9308;48.550;9.108;2023-03-31T07:21:47;3.80;;;3.50;;
18360;SDS011;9308;48.550;9.108;2023-03-31T07:24:13;2.13;;;2.00;;
18360;SDS011;9308;48.550;9.108;2023-03-31T07:26:38;2.27;;;2.13;;
18360;SDS011;9308;48.550;9.108;2023-03-31T07:29:04;2.40;;;2.30;;
18360;SDS011;9308;48.550;9.108;2023-03-31T07:31:29;5.17;;;3.27;;
18360;SDS011;9308;48.550;9.108;2023-03-31T07:33:55;5.57;;;3.53;;
18360;SDS011;9308;48.550;9.108;2023-03-31T07:36:20;5.87;;;4.27;;
18360;SDS011;9308;48.550;9.108;2023-03-31T07:38:46;5.70;;;3.63;;
18360;SDS011;9308;48.550;9.108;2023-03-31T07:41:13;5.20;;;3.70;;
18360;SDS011;9308;48.550;9.108;2023-03-31T07:43:43;4.80;;;3.40;;
18360;SDS011;9308;48.550;9.108;2023-03-31T07:46:13;4.27;;;3.30;;
18360;SDS011;9308;48.550;9.108;2023-03-31T07:51:24;2.80;;;2.60;;
18360;SDS011;9308;48.550;9.108;2023-03-31T07:53:51;3.73;;;2.83;;
18360;SDS011;9308;48.550;9.108;2023-03-31T07:56:20;2.20;;;2.10;;
18360;SDS011;9308;48.550;9.108;2023-03-31T07:58:48;3.00;;;2.40;;
18360;SDS011;9308;48.550;9.108;2023-03-31T08:01:16;2.37;;;2.17;;
18360;SDS011;9308;48.550;9.108;2023-03-31T08:03:44;3.07;;;2.10;;
18360;SDS011;9308;48.550;9.108;2023-03-31T08:06:10;2.60;;;2.37;;
18360;SDS011;9308;48.550;9.108;2023-03-31T08:08:36;2.17;;;1.97;;
18360;SDS011;9308;48.550;9.108;2023-03-31T08:11:07;1.80;;;1.70;;
18360;SDS011;9308;48.550;9.108;2023-03-31T08:13:33;1.77;;;1.67;;
18360;SDS011;9308;48.550;9.108;2023-03-31T08:15:58;1.87;;;1.70;;
18360;SDS011;9308;48.550;9.108;2023-03-31T08:18:24;6.63;;;2.80;;
18360;SDS011;9308;48.550;9.108;2023-03-31T08:20:49;2.00;;;1.90;;
18360;SDS011;9308;48.550;9.108;2023-03-31T08:23:15;1.90;;;1.80;;
18360;SDS011;9308;48.550;9.108;2023-03-31T08:25:40;1.90;;;1.70;;
18360;SDS011;9308;48.550;9.108;2023-03-31T08:28:06;1.70;;;1.60;;
18360;SDS011;9308;48.550;9.108;2023-03-31T08:30:36;1.80;;;1.70;;
18360;SDS011;9308;48.550;9.108;2023-03-31T08:33:01;1.57;;;1.43;;
18360;SDS011;9308;48.550;9.108;2023-03-31T08:35:27;1.63;;;1.30;;
18360;SDS011;9308;48.550;9.108;2023-03-31T08:37:53;1.40;;;1.30;;
18360;SDS011;9308;48.550;9.108;2023-03-31T08:40:20;2.07;;;1.87;;
18360;SDS011;9308;48.550;9.108;2023-03-31T08:42:48;1.80;;;1.33;;
18360;SDS011;9308;48.550;9.108;2023-03-31T08:47:45;1.70;;;1.60;;
18360;SDS011;9308;48.550;9.108;2023-03-31T08:50:18;1.50;;;1.40;;
18360;SDS011;9308;48.550;9.108;2023-03-31T08:52:55;2.50;;;1.17;;
18360;SDS011;9308;48.550;9.108;2023-03-31T08:55:31;1.50;;;1.40;;
18360;SDS011;9308;48.550;9.108;2023-03-31T09:09:35;1.73;;;1.50;;
18360;SDS011;9308;48.550;9.108;2023-03-31T09:12:13;1.70;;;1.30;;
18360;SDS011;9308;48.550;9.108;2023-03-31T09:14:53;2.07;;;1.43;;
18360;SDS011;9308;48.550;9.108;2023-03-31T09:17:30;1.40;;;1.30;;
18360;SDS011;9308;48.550;9.108;2023-03-31T09:20:06;1.40;;;1.30;;
18360;SDS011;9308;48.550;9.108;2023-03-31T09:22:46;2.00;;;1.40;;
18360;SDS011;9308;48.550;9.108;2023-03-31T09:25:16;1.80;;;1.30;;
18360;SDS011;9308;48.550;9.108;2023-03-31T09:27:45;2.73;;;1.00;;
18360;SDS011;9308;48.550;9.108;2023-03-31T09:32:40;1.47;;;1.30;;
18360;SDS011;9308;48.550;9.108;2023-03-31T09:35:19;2.70;;;1.50;;
18360;SDS011;9308;48.550;9.108;2023-03-31T09:37:50;1.20;;;1.10;;
18360;SDS011;9308;48.550;9.108;2023-03-31T09:40:21;4.20;;;1.70;;
18360;SDS011;9308;48.550;9.108;2023-03-31T09:45:29;1.43;;;1.33;;
18360;SDS011;9308;48.550;9.108;2023-03-31T09:48:00;6.10;;;1.93;;
18360;SDS011;9308;48.550;9.108;2023-03-31T09:50:28;2.20;;;1.40;;
18360;SDS011;9308;48.550;9.108;2023-03-31T09:52:55;2.97;;;1.37;;
18360;SDS011;9308;48.550;9.108;2023-03-31T09:55:27;5.60;;;1.93;;
18360;SDS011;9308;48.550;9.108;2023-03-31T09:58:01;2.13;;;1.60;;
18360;SDS011;9308;48.550;9.108;2023-03-31T10:00:31;2.30;;;1.77;;
18360;SDS011;9308;48.550;9.108;2023-03-31T10:03:00;2.93;;;1.73;;
18360;SDS011;9308;48.550;9.108;2023-03-31T10:05:38;2.57;;;1.60;;
18360;SDS011;9308;48.550;9.108;2023-03-31T10:13:45;1.93;;;1.47;;
18360;SDS011;9308;48.550;9.108;2023-03-31T10:19:12;5.23;;;1.93;;
18360;SDS011;9308;48.550;9.108;2023-03-31T10:21:58;4.53;;;1.57;;
18360;SDS011;9308;48.550;9.108;2023-03-31T10:24:26;2.63;;;1.80;;
18360;SDS011;9308;48.550;9.108;2023-03-31T10:27:01;4.57;;;1.70;;
18360;SDS011;9308;48.550;9.108;2023-03-31T10:29:30;4.00;;;1.83;;
18360;SDS011;9308;48.550;9.108;2023-03-31T10:32:01;3.87;;;2.00;;
18360;SDS011;9308;48.550;9.108;2023-03-31T10:34:56;2.40;;;1.40;;
18360;SDS011;9308;48.550;9.108;2023-03-31T10:37:27;2.43;;;1.60;;
18360;SDS011;9308;48.550;9.108;2023-03-31T10:39:56;4.33;;;1.83;;
18360;SDS011;9308;48.550;9.108;2023-03-31T10:42:24;4.67;;;1.80;;
18360;SDS011;9308;48.550;9.108;2023-03-31T10:45:09;3.47;;;1.90;;
18360;SDS011;9308;48.550;9.108;2023-03-31T10:47:36;2.60;;;1.73;;
18360;SDS011;9308;48.550;9.108;2023-03-31T10:50:05;3.90;;;1.73;;
18360;SDS011;9308;48.550;9.108;2023-03-31T10:52:42;4.30;;;1.67;;
18360;SDS011;9308;48.550;9.108;2023-03-31T10:55:18;4.67;;;1.97;;
18360;SDS011;9308;48.550;9.108;2023-03-31T10:57:54;3.07;;;1.77;;
18360;SDS011;9308;48.550;9.108;2023-03-31T11:00:32;3.07;;;1.60;;
18360;SDS011;9308;48.550;9.108;2023-03-31T11:06:06;2.13;;;1.50;;
18360;SDS011;9308;48.550;9.108;2023-03-31T11:08:47;2.77;;;1.30;;
18360;SDS011;9308;48.550;9.108;2023-03-31T11:11:37;4.47;;;2.10;;
18360;SDS011;9308;48.550;9.108;2023-03-31T11:14:16;3.87;;;1.60;;
18360;SDS011;9308;48.550;9.108;2023-03-31T11:19:44;3.10;;;1.67;;
18360;SDS011;9308;48.550;9.108;2023-03-31T11:22:33;4.40;;;1.70;;
18360;SDS011;9308;48.550;9.108;2023-03-31T11:38:39;1.40;;;0.90;;
18360;SDS011;9308;48.550;9.108;2023-03-31T11:41:16;2.20;;;1.47;;
18360;SDS011;9308;48.550;9.108;2023-03-31T11:46:39;2.20;;;0.90;;
18360;SDS011;9308;48.550;9.108;2023-03-31T11:54:47;1.00;;;0.87;;
18360;SDS011;9308;48.550;9.108;2023-03-31T11:59:59;1.63;;;1.00;;
18360;SDS011;9308;48.550;9.108;2023-03-31T12:02:37;0.80;;;0.80;;
18360;SDS011;9308;48.550;9.108;2023-03-31T12:05:08;1.37;;;0.90;;
18360;SDS011;9308;48.550;9.108;2023-03-31T12:07:53;1.30;;;1.20;;
18360;SDS011;9308;48.550;9.108;2023-03-31T12:10:42;2.57;;;0.97;;
18360;SDS011;9308;48.550;9.108;2023-03-31T12:13:56;0.70;;;0.70;;
18360;SDS011;9308;48.550;9.108;2023-03-31T12:16:19;2.50;;;1.23;;
18360;SDS011;9308;48.550;9.108;2023-03-31T12:18:59;0.83;;;0.83;;
18360;SDS011;9308;48.550;9.108;2023-03-31T12:21:31;1.60;;;0.93;;
18360;SDS011;9308;48.550;9.108;2023-03-31T12:23:59;1.17;;;0.80;;
18360;SDS011;9308;48.550;9.108;2023-03-31T12:26:31;2.83;;;0.90;;
18360;SDS011;9308;48.550;9.108;2023-03-31T12:29:02;1.77;;;1.07;;
18360;SDS011;9308;48.550;9.108;2023-03-31T12:31:35;1.23;;;1.00;;
18360;SDS011;9308;48.550;9.108;2023-03-31T12:34:05;1.80;;;0.90;;
18360;SDS011;9308;48.550;9.108;2023-03-31T12:39:34;1.53;;;1.07;;
18360;SDS011;9308;48.550;9.108;2023-03-31T12:44:59;1.17;;;0.73;;
18360;SDS011;9308;48.550;9.108;2023-03-31T12:47:40;1.30;;;1.20;;
18360;SDS011;9308;48.550;9.108;2023-03-31T12:50:26;1.53;;;1.10;;
18360;SDS011;9308;48.550;9.108;2023-03-31T12:53:28;1.30;;;1.13;;
18360;SDS011;9308;48.550;9.108;2023-03-31T12:55:58;2.37;;;1.10;;
18360;SDS011;9308;48.550;9.108;2023-03-31T13:06:00;1.53;;;1.43;;
18360;SDS011;9308;48.550;9.108;2023-03-31T13:11:38;2.33;;;1.40;;
18360;SDS011;9308;48.550;9.108;2023-03-31T13:16:49;2.07;;;1.27;;
18360;SDS011;9308;48.550;9.108;2023-03-31T13:19:28;2.13;;;1.30;;
18360;SDS011;9308;48.550;9.108;2023-03-31T13:21:57;3.13;;;1.67;;
18360;SDS011;9308;48.550;9.108;2023-03-31T13:24:24;3.90;;;1.50;;
18360;SDS011;9308;48.550;9.108;2023-03-31T13:26:51;3.23;;;1.70;;
18360;SDS011;9308;48.550;9.108;2023-03-31T13:29:19;3.80;;;1.90;;
18360;SDS011;9308;48.550;9.108;2023-03-31T13:34:27;4.07;;;1.37;;
18360;SDS011;9308;48.550;9.108;2023-03-31T13:45:23;2.40;;;1.60;;
18360;SDS011;9308;48.550;9.108;2023-03-31T13:50:45;7.73;;;1.83;;
18360;SDS011;9308;48.550;9.108;2023-03-31T13:56:19;1.40;;;0.97;;
18360;SDS011;9308;48.550;9.108;2023-03-31T13:59:14;1.80;;;0.70;;
18360;SDS011;9308;48.550;9.108;2023-03-31T14:02:10;1.57;;;0.80;;
18360;SDS011;9308;48.550;9.108;2023-03-31T14:07:17;1.40;;;0.90;;
18360;SDS011;9308;48.550;9.108;2023-03-31T14:09:50;0.90;;;0.77;;
18360;SDS011;9308;48.550;9.108;2023-03-31T14:12:19;1.47;;;0.90;;
18360;SDS011;9308;48.550;9.108;2023-03-31T14:14:46;1.20;;;0.97;;
18360;SDS011;9308;48.550;9.108;2023-03-31T14:17:11;1.23;;;1.13;;
18360;SDS011;9308;48.550;9.108;2023-03-31T14:22:41;0.70;;;0.70;;
18360;SDS011;9308;48.550;9.108;2023-03-31T14:25:18;0.87;;;0.80;;
18360;SDS011;9308;48.550;9.108;2023-03-31T14:33:37;2.43;;;1.50;;
18360;SDS011;9308;48.550;9.108;2023-03-31T14:36:12;2.27;;;1.70;;
18360;SDS011;9308;48.550;9.108;2023-03-31T14:39:07;2.43;;;1.40;;
18360;SDS011;9308;48.550;9.108;2023-03-31T14:41:35;1.73;;;1.10;;
18360;SDS011;9308;48.550;9.108;2023-03-31T14:44:03;1.87;;;1.30;;
18360;SDS011;9308;48.550;9.108;2023-03-31T14:46:31;1.30;;;1.20;;
18360;SDS011;9308;48.550;9.108;2023-03-31T14:48:57;1.77;;;1.03;;
18360;SDS011;9308;48.550;9.108;2023-03-31T14:51:25;1.47;;;1.00;;
18360;SDS011;9308;48.550;9.108;2023-03-31T14:53:55;1.20;;;0.80;;
18360;SDS011;9308;48.550;9.108;2023-03-31T14:56:28;2.60;;;0.90;;
18360;SDS011;9308;48.550;9.108;2023-03-31T14:58:59;1.10;;;1.00;;
18360;SDS011;9308;48.550;9.108;2023-03-31T15:01:28;1.13;;;0.97;;
18360;SDS011;9308;48.550;9.108;2023-03-31T15:03:58;1.37;;;0.80;;
18360;SDS011;9308;48.550;9.108;2023-03-31T15:06:25;1.00;;;0.90;;
18360;SDS011;9308;48.550;9.108;2023-03-31T15:08:51;0.87;;;0.87;;
18360;SDS011;9308;48.550;9.108;2023-03-31T15:11:21;1.73;;;0.80;;
18360;SDS011;9308;48.550;9.108;2023-03-31T15:13:47;0.70;;;0.70;;
18360;SDS011;9308;48.550;9.108;2023-03-31T15:16:19;1.20;;;0.87;;
18360;SDS011;9308;48.550;9.108;2023-03-31T15:19:19;0.80;;;0.80;;
18360;SDS011;9308;48.550;9.108;2023-03-31T15:21:57;1.03;;;0.93;;
18360;SDS011;9308;48.550;9.108;2023-03-31T15:24:27;2.57;;;1.23;;
18360;SDS011;9308;48.550;9.108;2023-03-31T15:26:58;2.37;;;0.80;;
18360;SDS011;9308;48.550;9.108;2023-03-31T15:32:33;1.50;;;1.07;;
18360;SDS011;9308;48.550;9.108;2023-03-31T15:35:00;2.43;;;1.20;;
18360;SDS011;9308;48.550;9.108;2023-03-31T15:37:29;1.07;;;0.97;;
18360;SDS011;9308;48.550;9.108;2023-03-31T15:40:00;1.60;;;1.50;;
18360;SDS011;9308;48.550;9.108;2023-03-31T15:42:31;1.00;;;0.87;;
18360;SDS011;9308;48.550;9.108;2023-03-31T15:48:00;3.03;;;1.00;;
18360;SDS011;9308;48.550;9.108;2023-03-31T15:50:27;1.50;;;1.40;;
18360;SDS011;9308;48.550;9.108;2023-03-31T15:52:53;1.50;;;0.90;;
18360;SDS011;9308;48.550;9.108;2023-03-31T15:57:47;1.47;;;1.20;;
18360;SDS011;9308;48.550;9.108;2023-03-31T16:00:39;3.07;;;1.10;;
18360;SDS011;9308;48.550;9.108;2023-03-31T16:05:50;2.33;;;1.27;;
18360;SDS011;9308;48.550;9.108;2023-03-31T16:08:38;1.90;;;1.10;;
18360;SDS011;9308;48.550;9.108;2023-03-31T16:11:11;1.20;;;1.10;;
18360;SDS011;9308;48.550;9.108;2023-03-31T16:13:42;2.70;;;1.00;;
18360;SDS011;9308;48.550;9.108;2023-03-31T16:16:14;2.20;;;1.20;;
18360;SDS011;9308;48.550;9.108;2023-03-31T16:18:44;1.43;;;1.00;;
18360;SDS011;9308;48.550;9.108;2023-03-31T16:21:19;1.27;;;1.00;;
18360;SDS011;9308;48.550;9.108;2023-03-31T16:23:49;2.10;;;1.30;;
18360;SDS011;9308;48.550;9.108;2023-03-31T16:26:21;1.00;;;1.00;;
18360;SDS011;9308;48.550;9.108;2023-03-31T16:28:48;2.60;;;1.30;;
18360;SDS011;9308;48.550;9.108;2023-03-31T16:31:26;2.53;;;0.97;;
18360;SDS011;9308;48.550;9.108;2023-03-31T16:33:55;4.40;;;1.70;;
18360;SDS011;9308;48.550;9.108;2023-03-31T16:36:21;1.93;;;1.43;;
18360;SDS011;9308;48.550;9.108;2023-03-31T16:38:47;2.77;;;1.63;;
18360;SDS011;9308;48.550;9.108;2023-03-31T16:41:16;4.93;;;1.80;;
18360;SDS011;9308;48.550;9.108;2023-03-31T16:43:43;3.70;;;1.10;;
18360;SDS011;9308;48.550;9.108;2023-03-31T16:46:09;4.40;;;1.53;;
18360;SDS011;9308;48.550;9.108;2023-03-31T16:48:35;2.10;;;1.27;;
18360;SDS011;9308;48.550;9.108;2023-03-31T16:51:01;3.00;;;1.00;;
18360;SDS011;9308;48.550;9.108;2023-03-31T16:53:32;1.53;;;1.40;;
18360;SDS011;9308;48.550;9.108;2023-03-31T16:55:58;2.33;;;1.40;;
18360;SDS011;9308;48.550;9.108;2023-03-31T16:58:25;4.80;;;2.30;;
18360;SDS011;9308;48.550;9.108;2023-03-31T17:00:54;5.10;;;2.07;;
18360;SDS011;9308;48.550;9.108;2023-03-31T17:03:20;1.93;;;1.30;;
18360;SDS011;9308;48.550;9.108;2023-03-31T17:05:46;6.33;;;3.00;;
18360;SDS011;9308;48.550;9.108;2023-03-31T17:08:17;2.63;;;2.03;;
18360;SDS011;9308;48.550;9.108;2023-03-31T17:10:54;0.90;;;0.90;;
18360;SDS011;9308;48.550;9.108;2023-03-31T17:13:20;1.80;;;1.30;;
18360;SDS011;9308;48.550;9.108;2023-03-31T17:15:46;4.10;;;2.27;;
18360;SDS011;9308;48.550;9.108;2023-03-31T17:18:12;2.70;;;1.97;;
18360;SDS011;9308;48.550;9.108;2023-03-31T17:20:37;3.30;;;1.90;;
18360;SDS011;9308;48.550;9.108;2023-03-31T17:23:03;2.10;;;1.97;;
18360;SDS011;9308;48.550;9.108;2023-03-31T17:25:28;3.47;;;3.23;;
18360;SDS011;9308;48.550;9.108;2023-03-31T17:27:54;5.50;;;5.00;;
18360;SDS011;9308;48.550;9.108;2023-03-31T17:30:20;4.60;;;3.80;;
18360;SDS011;9308;48.550;9.108;2023-03-31T17:32:46;3.83;;;3.47;;
18360;SDS011;9308;48.550;9.108;2023-03-31T17:35:12;3.03;;;2.83;;
18360;SDS011;9308;48.550;9.108;2023-03-31T17:37:44;3.70;;;3.20;;
18360;SDS011;9308;48.550;9.108;2023-03-31T17:40:11;2.07;;;1.93;;
18360;SDS011;9308;48.550;9.108;2023-03-31T17:42:37;3.67;;;3.23;;
18360;SDS011;9308;48.550;9.108;2023-03-31T17:45:03;4.93;;;2.77;;
18360;SDS011;9308;48.550;9.108;2023-03-31T17:47:29;4.40;;;3.30;;
18360;SDS011;9308;48.550;9.108;2023-03-31T17:49:56;2.87;;;2.67;;
18360;SDS011;9308;48.550;9.108;2023-03-31T17:52:21;4.33;;;3.93;;
18360;SDS011;9308;48.550;9.108;2023-03-31T17:54:47;8.37;;;6.57;;
18360;SDS011;9308;48.550;9.108;2023-03-31T17:57:13;2.13;;;1.90;;